createdAt,value
2019-06-20T00:01:01.401Z,5.70
2019-06-20T00:03:29.060Z,5.37
2019-06-20T00:05:57.218Z,5.70
2019-06-20T00:08:25.579Z,5.77
2019-06-20T00:10:53.345Z,5.23
2019-06-20T00:13:21.247Z,5.83
2019-06-20T00:15:49.322Z,5.57
2019-06-20T00:18:17.193Z,5.97
2019-06-20T00:20:45.554Z,5.63
2019-06-20T00:23:13.551Z,5.50
2019-06-20T00:25:42.046Z,5.67
2019-06-20T00:28:09.971Z,5.63
2019-06-20T00:30:38.029Z,6.13
2019-06-20T00:33:05.679Z,5.63
2019-06-20T00:35:33.631Z,5.90
2019-06-20T00:38:01.254Z,6.00
2019-06-20T00:40:29.615Z,5.13
2019-06-20T00:42:57.487Z,5.57
2019-06-20T00:45:25.745Z,6.03
2019-06-20T00:47:53.778Z,5.60
2019-06-20T00:50:21.763Z,5.53
2019-06-20T00:52:49.665Z,6.03
2019-06-20T00:55:17.915Z,5.50
2019-06-20T00:57:45.588Z,5.37
2019-06-20T01:00:13.918Z,5.80
2019-06-20T01:02:53.590Z,5.40
2019-06-20T01:05:22.142Z,5.57
2019-06-20T01:07:50.666Z,6.47
2019-06-20T01:10:18.648Z,7.03
2019-06-20T01:12:46.751Z,8.37
2019-06-20T01:15:15.293Z,8.33
2019-06-20T01:17:43.049Z,8.50
2019-06-20T01:20:11.829Z,8.40
2019-06-20T01:22:40.305Z,9.43
2019-06-20T01:25:08.947Z,9.23
2019-06-20T01:27:37.349Z,8.97
2019-06-20T01:30:05.545Z,9.87
2019-06-20T01:32:33.157Z,8.80
2019-06-20T01:35:00.755Z,9.03
2019-06-20T01:37:28.645Z,8.40
2019-06-20T01:39:56.258Z,8.70
2019-06-20T01:42:23.925Z,8.97
2019-06-20T01:44:52.170Z,8.33
2019-06-20T01:47:20.366Z,8.70
2019-06-20T01:49:48.140Z,8.00
2019-06-20T01:52:16.152Z,8.93
2019-06-20T01:54:44.356Z,9.37
2019-06-20T01:57:11.940Z,9.17
2019-06-20T01:59:39.997Z,9.20
2019-06-20T02:02:07.980Z,8.87
2019-06-20T02:04:35.949Z,10.17
2019-06-20T02:07:03.664Z,9.40
2019-06-20T02:09:33.477Z,8.87
2019-06-20T02:12:01.812Z,9.43
2019-06-20T02:14:30.137Z,9.30
2019-06-20T02:16:57.799Z,9.93
2019-06-20T02:19:25.601Z,8.83
2019-06-20T02:21:53.779Z,9.20
2019-06-20T02:24:21.616Z,9.53
2019-06-20T02:26:49.738Z,10.03
2019-06-20T02:29:17.875Z,9.53
2019-06-20T02:31:45.973Z,9.77
2019-06-20T02:34:14.594Z,9.83
2019-06-20T02:36:42.280Z,10.20
2019-06-20T02:39:10.482Z,9.67
2019-06-20T02:41:38.249Z,9.60
2019-06-20T02:44:06.427Z,9.90
2019-06-20T02:46:34.523Z,9.50
2019-06-20T02:49:02.387Z,9.60
2019-06-20T02:51:30.051Z,9.53
2019-06-20T02:53:58.130Z,8.50
2019-06-20T02:56:26.006Z,9.17
2019-06-20T02:58:54.303Z,9.53
2019-06-20T03:01:21.937Z,8.73
2019-06-20T03:03:49.772Z,9.10
2019-06-20T03:06:17.858Z,8.80
2019-06-20T03:08:46.287Z,8.17
2019-06-20T03:11:15.614Z,7.90
2019-06-20T03:13:43.622Z,7.20
2019-06-20T03:16:11.944Z,6.57
2019-06-20T03:18:39.758Z,6.43
2019-06-20T03:21:07.726Z,5.87
2019-06-20T03:23:37.030Z,5.90
2019-06-20T03:26:05.254Z,6.03
2019-06-20T03:28:33.368Z,5.90
2019-06-20T03:31:01.403Z,5.37
2019-06-20T03:33:29.291Z,5.77
2019-06-20T03:36:21.733Z,5.83
2019-06-20T03:38:49.994Z,5.73
2019-06-20T03:41:17.745Z,6.23
2019-06-20T03:43:47.402Z,5.87
2019-06-20T03:46:15.141Z,5.50
2019-06-20T03:48:43.136Z,5.73
2019-06-20T03:51:11.146Z,5.73
2019-06-20T03:53:38.911Z,5.50
2019-06-20T03:56:06.695Z,5.93
2019-06-20T03:58:34.656Z,6.17
2019-06-20T04:01:02.353Z,5.73
2019-06-20T04:03:30.515Z,6.03
2019-06-20T04:05:58.128Z,5.97
2019-06-20T04:08:26.088Z,6.70
2019-06-20T04:10:54.154Z,6.27
2019-06-20T04:13:23.115Z,7.00
2019-06-20T04:15:51.512Z,6.83
2019-06-20T04:18:19.564Z,6.40
2019-06-20T04:20:47.788Z,7.17
2019-06-20T04:23:15.322Z,6.80
2019-06-20T04:25:43.602Z,7.20
2019-06-20T04:28:11.260Z,6.60
2019-06-20T04:30:41.464Z,7.10
2019-06-20T04:33:09.271Z,8.00
2019-06-20T04:35:37.845Z,7.70
2019-06-20T04:38:05.781Z,7.97
2019-06-20T04:40:34.455Z,8.07
2019-06-20T04:43:02.862Z,8.13
2019-06-20T04:45:40.714Z,8.00
2019-06-20T04:48:08.955Z,9.07
2019-06-20T04:50:37.138Z,9.00
2019-06-20T04:53:04.961Z,9.27
2019-06-20T04:55:33.196Z,9.37
2019-06-20T04:58:00.884Z,8.43
2019-06-20T05:00:28.635Z,8.70
2019-06-20T05:02:56.734Z,9.67
2019-06-20T05:05:24.343Z,9.30
2019-06-20T05:07:52.637Z,9.80
2019-06-20T05:10:20.790Z,10.30
2019-06-20T05:12:48.349Z,10.57
2019-06-20T05:15:16.449Z,10.90
2019-06-20T05:17:44.129Z,10.80
2019-06-20T05:20:12.175Z,11.23
2019-06-20T05:22:40.350Z,9.43
2019-06-20T05:25:08.527Z,10.33
2019-06-20T05:27:37.206Z,10.13
2019-06-20T05:30:07.107Z,11.03
2019-06-20T05:32:35.153Z,11.30
2019-06-20T05:35:03.245Z,10.63
2019-06-20T05:37:31.731Z,10.53
2019-06-20T05:40:00.144Z,10.97
2019-06-20T05:42:29.203Z,10.83
2019-06-20T05:44:58.204Z,11.23
2019-06-20T05:47:26.347Z,11.43
2019-06-20T05:49:55.050Z,11.73
2019-06-20T05:52:23.364Z,12.60
2019-06-20T05:54:51.494Z,12.27
2019-06-20T05:57:19.894Z,12.40
2019-06-20T05:59:47.677Z,12.40
2019-06-20T06:02:15.901Z,13.17
2019-06-20T06:04:44.113Z,13.63
2019-06-20T06:07:14.202Z,13.77
2019-06-20T06:09:45.702Z,14.47
2019-06-20T06:12:13.880Z,14.50
2019-06-20T06:14:43.559Z,15.07
2019-06-20T06:17:11.769Z,15.33
2019-06-20T06:19:40.291Z,15.90
2019-06-20T06:22:08.508Z,14.73
2019-06-20T06:24:36.841Z,16.67
2019-06-20T06:27:05.091Z,16.77
2019-06-20T06:29:33.116Z,16.53
2019-06-20T06:32:02.468Z,16.93
2019-06-20T06:34:31.094Z,17.70
2019-06-20T06:36:58.895Z,18.27
2019-06-20T06:39:27.104Z,19.17
2019-06-20T06:41:55.523Z,18.90
2019-06-20T06:44:23.964Z,19.60
2019-06-20T06:46:57.603Z,19.13
2019-06-20T06:49:21.162Z,18.47
2019-06-20T06:51:50.022Z,18.37
2019-06-20T06:54:17.924Z,20.57
2019-06-20T06:56:45.858Z,22.27
2019-06-20T06:59:13.509Z,22.30
2019-06-20T07:01:41.432Z,21.67
2019-06-20T07:04:09.700Z,22.37
2019-06-20T07:06:38.797Z,23.07
2019-06-20T07:09:08.329Z,23.67
2019-06-20T07:11:36.385Z,24.73
2019-06-20T07:14:04.360Z,24.83
2019-06-20T07:16:32.744Z,25.03
2019-06-20T07:19:01.454Z,23.87
2019-06-20T07:21:29.164Z,25.50
2019-06-20T07:23:58.972Z,26.07
2019-06-20T07:26:27.650Z,25.80
2019-06-20T07:28:55.720Z,26.17
2019-06-20T07:31:23.687Z,25.43
2019-06-20T07:33:52.410Z,25.27
2019-06-20T07:36:20.128Z,26.30
2019-06-20T07:38:47.908Z,24.73
2019-06-20T07:41:16.121Z,23.57
2019-06-20T07:43:43.895Z,24.53
2019-06-20T07:46:11.586Z,25.30
2019-06-20T07:48:40.069Z,23.40
2019-06-20T07:51:08.014Z,24.43
2019-06-20T07:53:36.024Z,24.73
2019-06-20T07:56:04.204Z,23.67
2019-06-20T07:58:32.333Z,24.00
2019-06-20T08:01:01.337Z,23.97
2019-06-20T08:03:29.353Z,23.90
2019-06-20T08:05:57.386Z,24.43
2019-06-20T08:08:25.845Z,22.57
2019-06-20T08:10:54.026Z,23.40
2019-06-20T08:13:22.349Z,23.53
2019-06-20T08:15:50.835Z,23.47
2019-06-20T08:18:19.639Z,23.70
2019-06-20T08:20:49.737Z,24.13
2019-06-20T08:23:17.631Z,25.17
2019-06-20T08:25:45.674Z,22.87
2019-06-20T08:28:13.986Z,25.57
2019-06-20T08:30:41.720Z,24.50
2019-06-20T08:33:12.134Z,23.60
2019-06-20T08:35:40.374Z,24.47
2019-06-20T08:38:08.593Z,23.63
2019-06-20T08:40:40.944Z,22.57
2019-06-20T08:43:09.322Z,20.80
2019-06-20T08:45:38.237Z,22.50
2019-06-20T08:48:07.458Z,22.87
2019-06-20T08:50:35.720Z,21.07
2019-06-20T08:53:03.691Z,21.23
2019-06-20T08:55:32.524Z,20.97
2019-06-20T08:58:01.719Z,23.53
2019-06-20T09:00:31.144Z,21.47
2019-06-20T09:03:00.196Z,20.77
2019-06-20T09:05:30.712Z,21.23
2019-06-20T09:10:33.480Z,18.97
2019-06-20T09:13:01.495Z,20.03
2019-06-20T09:15:29.429Z,20.53
2019-06-20T09:17:58.483Z,20.63
2019-06-20T09:20:26.727Z,19.80
2019-06-20T09:22:55.269Z,18.43
2019-06-20T09:25:23.356Z,19.77
2019-06-20T09:27:52.654Z,20.37
2019-06-20T09:30:20.962Z,18.43
2019-06-20T09:32:48.819Z,19.07
2019-06-20T09:35:16.738Z,18.90
2019-06-20T09:37:45.129Z,18.80
2019-06-20T09:40:13.700Z,20.87
2019-06-20T09:42:41.542Z,18.17
2019-06-20T09:45:09.486Z,18.67
2019-06-20T09:47:37.524Z,19.00
2019-06-20T09:50:06.567Z,18.90
2019-06-20T09:52:34.239Z,19.30
2019-06-20T09:55:02.265Z,19.83
2019-06-20T09:57:30.068Z,19.17
2019-06-20T10:00:07.635Z,18.47
2019-06-20T10:02:27.699Z,19.67
2019-06-20T10:04:57.516Z,19.87
2019-06-20T10:07:28.145Z,18.97
2019-06-20T10:09:56.793Z,18.37
2019-06-20T10:12:24.452Z,17.23
2019-06-20T10:14:53.520Z,17.57
2019-06-20T10:17:21.723Z,14.90
2019-06-20T10:19:49.902Z,14.60
2019-06-20T10:22:17.619Z,13.10
2019-06-20T10:24:47.387Z,13.50
2019-06-20T10:27:15.682Z,13.40
2019-06-20T10:29:44.464Z,14.47
2019-06-20T10:32:12.806Z,12.80
2019-06-20T10:34:41.026Z,12.80
2019-06-20T10:37:09.191Z,13.03
2019-06-20T10:39:37.509Z,11.43
2019-06-20T10:42:05.926Z,11.33
2019-06-20T10:44:34.535Z,12.00
2019-06-20T10:47:02.938Z,11.53
2019-06-20T10:49:30.673Z,12.03
2019-06-20T10:51:58.776Z,12.03
2019-06-20T10:54:26.932Z,12.17
2019-06-20T10:56:54.694Z,11.70
2019-06-20T10:59:22.738Z,11.17
2019-06-20T11:01:51.193Z,11.33
2019-06-20T11:04:19.484Z,11.30
2019-06-20T11:06:47.608Z,10.93
2019-06-20T11:09:15.772Z,11.03
2019-06-20T11:11:44.820Z,9.57
2019-06-20T11:14:13.255Z,10.10
2019-06-20T11:16:42.168Z,9.70
2019-06-20T11:19:10.729Z,9.60
2019-06-20T11:21:39.757Z,8.77
2019-06-20T11:24:08.009Z,8.63
2019-06-20T11:26:37.763Z,8.97
2019-06-20T11:29:05.846Z,9.17
2019-06-20T11:31:33.705Z,8.97
2019-06-20T11:34:01.573Z,8.90
2019-06-20T11:36:29.367Z,10.03
2019-06-20T11:38:57.733Z,10.27
2019-06-20T11:41:26.035Z,10.50
2019-06-20T11:43:54.051Z,10.00
2019-06-20T11:46:22.255Z,11.13
2019-06-20T11:48:50.392Z,10.47
2019-06-20T11:51:18.785Z,10.83
2019-06-20T11:53:46.957Z,11.00
2019-06-20T11:56:15.501Z,11.47
2019-06-20T11:58:43.635Z,11.50
2019-06-20T12:01:11.699Z,11.73
2019-06-20T12:03:42.516Z,10.63
2019-06-20T12:06:13.302Z,10.73
2019-06-20T12:11:50.726Z,10.93
2019-06-20T12:14:18.743Z,11.20
2019-06-20T12:16:46.490Z,11.07
2019-06-20T12:19:14.200Z,11.50
2019-06-20T12:21:42.470Z,10.37
2019-06-20T12:24:10.690Z,11.53
2019-06-20T12:26:39.140Z,11.17
2019-06-20T12:29:08.825Z,11.30
2019-06-20T12:31:36.599Z,12.77
2019-06-20T12:34:04.371Z,11.83
2019-06-20T12:36:32.409Z,11.67
2019-06-20T12:39:00.833Z,11.40
2019-06-20T12:41:29.057Z,10.87
2019-06-20T12:43:56.976Z,10.57
2019-06-20T12:46:25.063Z,10.47
2019-06-20T12:48:52.780Z,10.40
2019-06-20T12:51:21.522Z,10.30
2019-06-20T12:53:50.915Z,9.33
2019-06-20T12:56:18.983Z,9.20
2019-06-20T12:58:46.826Z,9.30
2019-06-20T13:01:15.802Z,8.77
2019-06-20T13:03:44.019Z,8.50
2019-06-20T13:06:12.984Z,8.53
2019-06-20T13:08:42.299Z,9.47
2019-06-20T13:11:10.901Z,10.03
2019-06-20T13:13:42.162Z,9.07
2019-06-20T13:16:10.250Z,9.07
2019-06-20T13:18:38.110Z,8.73
2019-06-20T13:21:08.342Z,9.10
2019-06-20T13:23:36.366Z,9.10
2019-06-20T13:26:04.312Z,8.93
2019-06-20T13:28:32.626Z,9.03
2019-06-20T13:31:00.170Z,9.63
2019-06-20T13:33:28.339Z,8.20
2019-06-20T13:35:56.237Z,9.77
2019-06-20T13:38:24.114Z,8.80
2019-06-20T13:40:51.966Z,9.37
2019-06-20T13:43:20.159Z,9.30
2019-06-20T13:45:48.064Z,9.63
2019-06-20T13:48:16.568Z,9.37
2019-06-20T13:50:45.314Z,9.80
2019-06-20T13:53:13.219Z,9.50
2019-06-20T13:55:44.128Z,9.83
2019-06-20T13:58:12.100Z,9.13
2019-06-20T14:00:42.945Z,8.93
2019-06-20T14:03:10.088Z,7.83
2019-06-20T14:05:39.668Z,7.60
2019-06-20T14:08:10.023Z,7.97
2019-06-20T14:10:38.288Z,8.23
2019-06-20T14:13:18.233Z,8.77
2019-06-20T14:15:35.609Z,8.27
2019-06-20T14:18:03.479Z,8.10
2019-06-20T14:20:31.544Z,7.33
2019-06-20T14:22:59.907Z,8.53
2019-06-20T14:25:28.157Z,6.95
2019-06-20T14:27:56.262Z,8.23
2019-06-20T14:30:27.738Z,70.93
2019-06-20T14:32:56.062Z,10.72
2019-06-20T14:35:24.175Z,8.73
2019-06-20T14:37:52.186Z,8.08
2019-06-20T14:40:20.980Z,8.43
2019-06-20T14:42:50.250Z,7.47
2019-06-20T14:45:18.246Z,8.15
2019-06-20T14:47:46.276Z,8.65
2019-06-20T14:50:14.002Z,8.35
2019-06-20T14:52:42.879Z,9.55
2019-06-20T14:55:11.605Z,8.65
2019-06-20T14:57:39.892Z,9.37
2019-06-20T15:00:07.977Z,9.35
2019-06-20T15:02:38.866Z,8.60
2019-06-20T15:05:05.802Z,8.93
2019-06-20T15:07:33.747Z,9.07
2019-06-20T15:10:04.121Z,10.10
2019-06-20T15:12:31.828Z,10.00
2019-06-20T15:14:59.858Z,8.30
2019-06-20T15:17:28.447Z,9.17
2019-06-20T15:19:56.247Z,7.83
2019-06-20T15:22:24.491Z,8.30
2019-06-20T15:24:53.896Z,8.13
2019-06-20T15:27:22.176Z,8.98
2019-06-20T15:29:50.502Z,7.95
2019-06-20T15:32:18.721Z,9.10
2019-06-20T15:34:49.026Z,9.73
2019-06-20T15:37:17.491Z,10.00
2019-06-20T15:39:46.735Z,10.53
2019-06-20T15:42:15.303Z,9.53
2019-06-20T15:44:43.463Z,10.97
2019-06-20T15:47:12.071Z,11.53
2019-06-20T15:49:41.399Z,11.50
2019-06-20T15:52:10.451Z,11.50
2019-06-20T15:54:38.867Z,11.20
2019-06-20T15:57:07.012Z,12.37
2019-06-20T15:59:35.434Z,11.73
2019-06-20T16:02:03.440Z,12.03
2019-06-20T16:04:31.814Z,12.23
2019-06-20T16:06:59.859Z,12.60
2019-06-20T16:09:27.922Z,11.90
2019-06-20T16:11:56.363Z,11.43
2019-06-20T16:14:24.079Z,11.03
2019-06-20T16:16:52.158Z,9.87
2019-06-20T16:19:20.007Z,11.87
2019-06-20T16:21:47.842Z,10.83
2019-06-20T16:24:15.556Z,10.67
2019-06-20T16:26:43.572Z,10.17
2019-06-20T16:29:12.461Z,10.10
2019-06-20T16:31:40.458Z,9.00
2019-06-20T16:34:08.468Z,9.23
2019-06-20T16:36:36.509Z,9.07
2019-06-20T16:39:06.808Z,7.70
2019-06-20T16:41:34.645Z,7.20
2019-06-20T16:44:02.477Z,7.27
2019-06-20T16:46:32.861Z,6.93
2019-06-20T16:49:00.804Z,6.97
2019-06-20T16:51:28.647Z,5.93
2019-06-20T16:53:56.301Z,6.90
2019-06-20T16:56:24.323Z,7.00
2019-06-20T16:58:52.114Z,6.37
2019-06-20T17:01:19.972Z,6.80
2019-06-20T17:03:48.853Z,6.70
2019-06-20T17:06:33.535Z,6.63
2019-06-20T17:09:02.504Z,6.17
2019-06-20T17:11:31.201Z,6.53
2019-06-20T17:13:59.719Z,7.30
2019-06-20T17:16:27.718Z,6.67
2019-06-20T17:18:57.651Z,6.97
2019-06-20T17:21:26.494Z,6.63
2019-06-20T17:23:56.804Z,7.10
2019-06-20T17:26:25.080Z,7.00
2019-06-20T17:28:53.764Z,6.43
2019-06-20T17:31:22.671Z,6.77
2019-06-20T17:33:57.498Z,6.93
2019-06-20T17:36:20.620Z,6.80
2019-06-20T17:38:49.181Z,6.87
2019-06-20T17:41:18.192Z,6.30
2019-06-20T17:43:48.602Z,6.37
2019-06-20T17:46:16.524Z,7.30
2019-06-20T17:48:45.071Z,7.77
2019-06-20T17:51:13.309Z,7.70
2019-06-20T17:53:41.122Z,7.47
2019-06-20T17:56:09.275Z,7.53
2019-06-20T17:58:37.489Z,7.47
2019-06-20T18:01:06.444Z,7.13
2019-06-20T18:03:35.737Z,7.70
2019-06-20T18:06:03.815Z,7.17
2019-06-20T18:08:31.933Z,7.00
2019-06-20T18:11:00.604Z,7.60
2019-06-20T18:13:29.377Z,7.53
2019-06-20T18:15:57.193Z,7.43
2019-06-20T18:18:25.410Z,7.40
2019-06-20T18:21:00.919Z,7.17
2019-06-20T18:23:29.492Z,7.10
2019-06-20T18:25:59.781Z,7.90
2019-06-20T18:28:27.996Z,7.17
2019-06-20T18:30:56.032Z,7.53
2019-06-20T18:33:25.400Z,7.27
2019-06-20T18:35:54.216Z,8.13
2019-06-20T18:38:22.407Z,7.93
2019-06-20T18:40:50.363Z,8.37
2019-06-20T18:43:20.450Z,8.63
2019-06-20T18:45:48.475Z,8.13
2019-06-20T18:48:16.216Z,8.60
2019-06-20T18:50:44.893Z,8.17
2019-06-20T18:53:13.686Z,8.77
2019-06-20T18:56:02.108Z,9.47
2019-06-20T18:58:29.669Z,9.13
2019-06-20T19:00:57.507Z,8.47
2019-06-20T19:03:25.615Z,8.80
2019-06-20T19:05:53.471Z,9.60
2019-06-20T19:08:21.831Z,10.47
2019-06-20T19:10:50.694Z,9.17
2019-06-20T19:13:20.720Z,10.13
2019-06-20T19:15:51.140Z,10.00
2019-06-20T19:18:22.784Z,9.53
2019-06-20T19:20:48.973Z,9.73
2019-06-20T19:23:19.761Z,10.47
2019-06-20T19:25:47.482Z,10.17
2019-06-20T19:28:17.007Z,10.50
2019-06-20T19:30:49.901Z,9.60
2019-06-20T19:33:20.609Z,10.13
2019-06-20T19:35:48.631Z,10.40
2019-06-20T19:38:17.090Z,11.27
2019-06-20T19:40:46.394Z,10.43
2019-06-20T19:43:14.300Z,11.93
2019-06-20T19:45:42.789Z,11.40
2019-06-20T19:48:13.904Z,11.77
2019-06-20T19:50:42.270Z,13.20
2019-06-20T19:53:21.506Z,12.17
2019-06-20T19:55:49.586Z,12.77
2019-06-20T19:58:17.935Z,11.60
2019-06-20T20:00:45.744Z,13.33
2019-06-20T20:03:14.195Z,12.73
2019-06-20T20:05:42.301Z,12.87
2019-06-20T20:08:10.404Z,13.33
2019-06-20T20:10:42.309Z,13.00
2019-06-20T20:13:10.709Z,12.47
2019-06-20T20:15:38.748Z,12.43
2019-06-20T20:18:06.740Z,11.57
2019-06-20T20:23:45.435Z,9.37
2019-06-20T20:26:13.232Z,9.40
2019-06-20T20:28:41.291Z,9.77
2019-06-20T20:31:09.083Z,9.03
2019-06-20T20:33:38.238Z,8.73
2019-06-20T20:36:06.347Z,8.57
2019-06-20T20:38:34.365Z,9.20
2019-06-20T20:41:02.337Z,9.17
2019-06-20T20:43:30.301Z,9.37
2019-06-20T20:45:58.637Z,8.70
2019-06-20T20:48:26.686Z,8.80
2019-06-20T20:50:54.689Z,8.30
2019-06-20T20:53:23.199Z,8.40
2019-06-20T20:55:51.448Z,7.90
2019-06-20T20:58:19.377Z,9.40
2019-06-20T21:00:54.030Z,8.83
2019-06-20T21:03:29.013Z,9.03
2019-06-20T21:05:57.111Z,8.37
2019-06-20T21:08:25.204Z,9.53
2019-06-20T21:10:53.726Z,9.27
2019-06-20T21:13:21.740Z,9.03
2019-06-20T21:15:50.342Z,8.90
2019-06-20T21:18:19.491Z,9.10
2019-06-20T21:20:47.611Z,10.30
2019-06-20T21:23:15.557Z,9.20
2019-06-20T21:25:43.335Z,9.60
2019-06-20T21:28:11.243Z,10.27
2019-06-20T21:30:39.690Z,10.70
2019-06-20T21:33:07.473Z,9.80
2019-06-20T21:35:35.335Z,9.03
2019-06-20T21:38:03.088Z,9.77
2019-06-20T21:40:30.994Z,9.67
2019-06-20T21:42:59.383Z,8.77
2019-06-20T21:45:27.764Z,9.83
2019-06-20T21:47:56.046Z,9.00
2019-06-20T21:50:23.798Z,9.27
2019-06-20T21:52:51.702Z,8.27
2019-06-20T21:55:19.463Z,8.43
2019-06-20T21:57:47.433Z,8.80
2019-06-20T22:00:25.350Z,8.77
2019-06-20T22:02:53.178Z,8.20
2019-06-20T22:05:21.374Z,7.90
2019-06-20T22:07:49.135Z,9.00
2019-06-20T22:10:17.282Z,8.70
2019-06-20T22:12:45.450Z,8.10
2019-06-20T22:15:14.502Z,8.80
2019-06-20T22:17:42.539Z,9.10
2019-06-20T22:20:11.880Z,9.23
2019-06-20T22:22:39.921Z,8.50
2019-06-20T22:25:08.223Z,9.23
2019-06-20T22:27:36.391Z,8.63
2019-06-20T22:30:06.679Z,9.20
2019-06-20T22:32:34.407Z,8.80
2019-06-20T22:35:02.109Z,8.77
2019-06-20T22:37:30.557Z,9.10
2019-06-20T22:39:58.820Z,8.77
2019-06-20T22:42:26.794Z,8.80
2019-06-20T22:44:54.646Z,9.33
2019-06-20T22:47:22.340Z,8.33
2019-06-20T22:49:49.976Z,9.33
2019-06-20T22:52:18.060Z,8.13
2019-06-20T22:54:46.521Z,8.87
2019-06-20T22:57:14.096Z,8.53
2019-06-20T22:59:41.674Z,6.90
2019-06-20T23:02:10.594Z,8.03
2019-06-20T23:04:38.424Z,8.90
2019-06-20T23:07:06.456Z,8.07
2019-06-20T23:09:35.241Z,7.60
2019-06-20T23:12:03.527Z,7.03
2019-06-20T23:14:32.091Z,7.33
2019-06-20T23:17:00.060Z,6.77
2019-06-20T23:19:28.759Z,7.27
2019-06-20T23:21:56.859Z,6.97
2019-06-20T23:24:24.588Z,7.07
2019-06-20T23:26:53.502Z,7.63
2019-06-20T23:29:25.152Z,7.63
2019-06-20T23:31:53.600Z,6.80
2019-06-20T23:34:21.533Z,7.73
2019-06-20T23:36:49.362Z,7.33
2019-06-20T23:39:17.686Z,7.07
2019-06-20T23:41:45.418Z,7.67
2019-06-20T23:44:13.283Z,7.67
2019-06-20T23:46:41.058Z,8.07
2019-06-20T23:49:08.978Z,6.97
2019-06-20T23:51:39.764Z,7.33
2019-06-20T23:54:07.939Z,7.10
2019-06-20T23:56:36.099Z,7.80
2019-06-20T23:59:03.898Z,8.03
